Portada
METAR-TAF:

METAR-TAF

Aeropuertos :

Aeropuerto de Ramona

Ramona, California, Estados Unidos

latitud: 33-02-15N, longitud: 116-54-57W, altitud: 424 m

Observación

El informe se hizo hace 56 minutos, a las 01:53 UTC
Viento 4 kt del oeste
Temperatura 13°C
Humedad 88%
Presión 1021 hPa
Visibilidad: 16.1 km
Cielo despejado

METAR: KRNM 310153Z 26004KT 10SM CLR 13/11 A3016 RMK AO2 SLP211 T01330106

Hora: 19:49 (02:49 UTC)


TAF: falta

Observaciones y pronósticos meteorológicos de más de 4000 aeropuertos (mensajes METAR y TAF).

Los puntos amarillos y rojos representan las estaciones disponibles.

Ponga el ratón en el punto deseado para ver el nombre de la estación.

Haga clic para ver las observaciones y los pronósticos meteorológicos.

Para cambiar el mapa : haga clic en los botones verdes con una cruz de color negro para hacer un zoom, en el botón verde con un guión para alejar o en las flechas verdes para mapas adyacentes.


METAR-TAF: